CCA121 ZBAA-ZKPY
Flight info
| Callsign | CCA121 |
|---|---|
| Flight time | 1h 36m |
| Altitude | 37100 |
| Route | DOTRA B334 KAKAT W31 CHG A575 BIDIB A345 GASAN |
| Aircraft | B737/M-SDE2E3FGHIRWXY/LB1 |
Departure
| Time | 2026-04-18 09:58 |
|---|---|
| Airport | Beijing Capital International Airport (ZBAA) |
Arrival
| Time | 2026-04-18 11:34 |
|---|---|
| Airport | Pyongyang Sunan International Airport (ZKPY) |
| Time | Latitude | Longitude | Altitude | Speed | Heading |
|---|---|---|---|---|---|
| 2026-04-18 09:43 | 40.07684 | 116.60244 | 123 ft | 0 kts | 26° |
| 2026-04-18 09:51 | 40.07676 | 116.60239 | 122 ft | 4 kts | 26° |
| 2026-04-18 09:51 | 40.07652 | 116.60223 | 120 ft | 4 kts | 26° |
| 2026-04-18 09:51 | 40.07628 | 116.60208 | 120 ft | 4 kts | 22° |
| 2026-04-18 09:52 | 40.07604 | 116.60202 | 121 ft | 4 kts | 342° |
| 2026-04-18 09:52 | 40.07582 | 116.60220 | 119 ft | 3 kts | 308° |
| 2026-04-18 09:52 | 40.07580 | 116.60224 | 118 ft | 0 kts | 307° |
| 2026-04-18 09:54 | 40.07609 | 116.60152 | 121 ft | 15 kts | 293° |
| 2026-04-18 09:54 | 40.07631 | 116.60031 | 123 ft | 14 kts | 264° |
| 2026-04-18 09:54 | 40.07650 | 116.59928 | 120 ft | 13 kts | 330° |
| 2026-04-18 09:54 | 40.07737 | 116.59908 | 121 ft | 15 kts | 353° |
| 2026-04-18 09:55 | 40.07888 | 116.59884 | 121 ft | 22 kts | 353° |
| 2026-04-18 09:55 | 40.08038 | 116.59861 | 121 ft | 21 kts | 353° |
| 2026-04-18 09:55 | 40.08184 | 116.59838 | 122 ft | 21 kts | 353° |
| 2026-04-18 09:55 | 40.08326 | 116.59816 | 123 ft | 20 kts | 353° |
| 2026-04-18 09:56 | 40.08463 | 116.59794 | 119 ft | 19 kts | 353° |
| 2026-04-18 09:56 | 40.08594 | 116.59774 | 120 ft | 19 kts | 353° |
| 2026-04-18 09:56 | 40.08722 | 116.59754 | 122 ft | 18 kts | 353° |
| 2026-04-18 09:56 | 40.08839 | 116.59735 | 120 ft | 13 kts | 353° |
| 2026-04-18 09:57 | 40.08890 | 116.59660 | 123 ft | 13 kts | 264° |
| 2026-04-18 09:57 | 40.08879 | 116.59548 | 123 ft | 12 kts | 263° |
| 2026-04-18 09:57 | 40.08831 | 116.59501 | 121 ft | 10 kts | 173° |
| 2026-04-18 09:57 | 40.08624 | 116.59533 | 122 ft | 63 kts | 173° |
| 2026-04-18 09:58 | 40.07959 | 116.59638 | 122 ft | 126 kts | 173° |
| 2026-04-18 09:58 | 40.06959 | 116.59793 | 356 ft | 151 kts | 177° |
| 2026-04-18 09:58 | 40.05986 | 116.59948 | 1118 ft | 142 kts | 176° |
| 2026-04-18 09:58 | 40.05043 | 116.60095 | 1859 ft | 137 kts | 175° |
| 2026-04-18 09:59 | 40.04045 | 116.60249 | 2392 ft | 158 kts | 176° |
| 2026-04-18 09:59 | 40.02837 | 116.60433 | 2710 ft | 189 kts | 176° |
| 2026-04-18 09:59 | 40.01436 | 116.60649 | 3102 ft | 210 kts | 176° |
| 2026-04-18 10:00 | 39.98218 | 116.61159 | 4210 ft | 245 kts | 176° |
| 2026-04-18 10:00 | 39.96522 | 116.61434 | 5243 ft | 247 kts | 176° |
| 2026-04-18 10:00 | 39.94809 | 116.61711 | 6244 ft | 250 kts | 176° |
| 2026-04-18 10:00 | 39.93066 | 116.61989 | 7130 ft | 255 kts | 177° |
| 2026-04-18 10:01 | 39.91285 | 116.62272 | 8003 ft | 261 kts | 177° |
| 2026-04-18 10:01 | 39.89469 | 116.62718 | 8880 ft | 272 kts | 165° |
| 2026-04-18 10:01 | 39.87769 | 116.63917 | 9774 ft | 285 kts | 149° |
| 2026-04-18 10:01 | 39.86280 | 116.65721 | 10359 ft | 307 kts | 135° |
| 2026-04-18 10:02 | 39.85103 | 116.68190 | 10549 ft | 343 kts | 116° |
| 2026-04-18 10:02 | 39.84617 | 116.71374 | 10735 ft | 378 kts | 91° |
| 2026-04-18 10:02 | 39.84887 | 116.74879 | 11117 ft | 397 kts | 84° |
| 2026-04-18 10:02 | 39.85327 | 116.78458 | 11792 ft | 404 kts | 82° |
| 2026-04-18 10:03 | 39.85793 | 116.82070 | 12607 ft | 406 kts | 82° |
| 2026-04-18 10:03 | 39.86322 | 116.85689 | 13412 ft | 409 kts | 73° |
| 2026-04-18 10:03 | 39.87667 | 116.88958 | 14098 ft | 413 kts | 48° |
| 2026-04-18 10:03 | 39.89877 | 116.91306 | 14843 ft | 412 kts | 26° |
| 2026-04-18 10:04 | 39.92533 | 116.92660 | 15613 ft | 410 kts | 11° |
| 2026-04-18 10:04 | 39.95350 | 116.93035 | 16320 ft | 408 kts | 353° |
| 2026-04-18 10:04 | 39.98170 | 116.92657 | 17061 ft | 409 kts | 350° |
| 2026-04-18 10:04 | 40.01014 | 116.92182 | 17744 ft | 413 kts | 349° |
| 2026-04-18 10:05 | 40.03841 | 116.91689 | 18380 ft | 417 kts | 349° |
| 2026-04-18 10:05 | 40.06733 | 116.91190 | 19011 ft | 420 kts | 349° |
| 2026-04-18 10:05 | 40.09632 | 116.90703 | 19649 ft | 423 kts | 350° |
| 2026-04-18 10:05 | 40.12574 | 116.90223 | 20275 ft | 426 kts | 350° |
| 2026-04-18 10:06 | 40.15522 | 116.89751 | 20862 ft | 429 kts | 350° |
| 2026-04-18 10:06 | 40.18493 | 116.89281 | 21465 ft | 432 kts | 350° |
| 2026-04-18 10:06 | 40.21488 | 116.88808 | 22034 ft | 435 kts | 350° |
| 2026-04-18 10:06 | 40.24503 | 116.88321 | 22589 ft | 438 kts | 349° |
| 2026-04-18 10:07 | 40.27580 | 116.87821 | 23137 ft | 442 kts | 349° |
| 2026-04-18 10:07 | 40.30642 | 116.87327 | 23626 ft | 444 kts | 350° |
| 2026-04-18 10:07 | 40.33671 | 116.86844 | 24085 ft | 446 kts | 350° |
| 2026-04-18 10:07 | 40.36760 | 116.86355 | 24562 ft | 448 kts | 350° |
| 2026-04-18 10:08 | 40.39858 | 116.85868 | 25027 ft | 450 kts | 350° |
| 2026-04-18 10:08 | 40.42975 | 116.85377 | 25470 ft | 452 kts | 349° |
| 2026-04-18 10:08 | 40.46101 | 116.84886 | 25945 ft | 452 kts | 350° |
| 2026-04-18 10:08 | 40.49228 | 116.84393 | 26396 ft | 453 kts | 350° |
| 2026-04-18 10:09 | 40.52369 | 116.83898 | 26816 ft | 455 kts | 350° |
| 2026-04-18 10:09 | 40.55523 | 116.83399 | 27193 ft | 457 kts | 350° |
| 2026-04-18 10:09 | 40.57621 | 116.83071 | 27457 ft | 459 kts | 351° |
| 2026-04-18 10:09 | 40.61877 | 116.82400 | 27908 ft | 462 kts | 351° |
| 2026-04-18 10:10 | 40.65081 | 116.81891 | 28214 ft | 465 kts | 351° |
| 2026-04-18 10:10 | 40.67212 | 116.81550 | 28503 ft | 465 kts | 351° |
| 2026-04-18 10:10 | 40.70406 | 116.81042 | 29088 ft | 461 kts | 351° |
| 2026-04-18 10:10 | 40.73582 | 116.80538 | 29766 ft | 456 kts | 351° |
| 2026-04-18 10:11 | 40.76729 | 116.80159 | 30313 ft | 454 kts | 356° |
| 2026-04-18 10:11 | 40.79889 | 116.80223 | 30813 ft | 453 kts | 359° |
| 2026-04-18 10:11 | 40.83040 | 116.80409 | 31141 ft | 454 kts | 360° |
| 2026-04-18 10:11 | 40.86197 | 116.80629 | 31514 ft | 453 kts | 360° |
| 2026-04-18 10:12 | 40.89337 | 116.80847 | 32020 ft | 449 kts | 359° |
| 2026-04-18 10:12 | 40.92449 | 116.81048 | 32531 ft | 446 kts | 359° |
| 2026-04-18 10:12 | 40.95539 | 116.81231 | 32965 ft | 443 kts | 358° |
| 2026-04-18 10:12 | 40.98611 | 116.81401 | 33407 ft | 441 kts | 358° |
| 2026-04-18 10:13 | 41.01674 | 116.81564 | 33806 ft | 440 kts | 357° |
| 2026-04-18 10:13 | 41.04725 | 116.81724 | 34142 ft | 438 kts | 357° |
| 2026-04-18 10:13 | 41.07737 | 116.81880 | 34360 ft | 440 kts | 357° |
| 2026-04-18 10:13 | 41.10806 | 116.82038 | 34563 ft | 442 kts | 357° |
| 2026-04-18 10:14 | 41.13880 | 116.82198 | 34814 ft | 442 kts | 357° |
| 2026-04-18 10:14 | 41.16950 | 116.82359 | 35079 ft | 442 kts | 357° |
| 2026-04-18 10:14 | 41.20027 | 116.82521 | 35297 ft | 443 kts | 357° |
| 2026-04-18 10:14 | 41.23102 | 116.82683 | 35487 ft | 444 kts | 357° |
| 2026-04-18 10:15 | 41.26195 | 116.82846 | 35712 ft | 444 kts | 357° |
| 2026-04-18 10:15 | 41.29282 | 116.83010 | 35940 ft | 444 kts | 357° |
| 2026-04-18 10:15 | 41.32387 | 116.83174 | 36152 ft | 445 kts | 357° |
| 2026-04-18 10:15 | 41.35490 | 116.83339 | 36354 ft | 446 kts | 358° |
| 2026-04-18 10:16 | 41.38594 | 116.83504 | 36597 ft | 446 kts | 357° |
| 2026-04-18 10:16 | 41.41697 | 116.83669 | 36811 ft | 446 kts | 357° |
| 2026-04-18 10:16 | 41.44756 | 116.83831 | 36923 ft | 444 kts | 357° |
| 2026-04-18 10:17 | 41.50960 | 116.84161 | 36937 ft | 447 kts | 357° |
| 2026-04-18 10:17 | 41.57180 | 116.84493 | 36934 ft | 446 kts | 357° |
| 2026-04-18 10:18 | 41.63392 | 116.84825 | 36919 ft | 446 kts | 357° |
| 2026-04-18 10:18 | 41.66486 | 116.85371 | 36887 ft | 456 kts | 12° |
| 2026-04-18 10:18 | 41.69377 | 116.87186 | 36920 ft | 467 kts | 31° |
| 2026-04-18 10:18 | 41.71835 | 116.90063 | 36931 ft | 475 kts | 46° |
| 2026-04-18 10:19 | 41.73614 | 116.93756 | 36934 ft | 482 kts | 60° |
| 2026-04-18 10:19 | 41.76441 | 117.01923 | 36916 ft | 484 kts | 63° |
| 2026-04-18 10:20 | 41.79180 | 117.10176 | 36933 ft | 485 kts | 63° |
| 2026-04-18 10:20 | 41.81988 | 117.18417 | 36935 ft | 486 kts | 62° |
| 2026-04-18 10:21 | 41.84837 | 117.26648 | 36923 ft | 486 kts | 62° |
| 2026-04-18 10:21 | 41.87690 | 117.34888 | 36922 ft | 486 kts | 62° |
| 2026-04-18 10:22 | 41.90512 | 117.43075 | 36917 ft | 486 kts | 62° |
| 2026-04-18 10:22 | 41.93342 | 117.51317 | 36927 ft | 485 kts | 62° |
| 2026-04-18 10:23 | 41.96158 | 117.59546 | 36922 ft | 484 kts | 62° |
| 2026-04-18 10:23 | 41.98963 | 117.67763 | 36918 ft | 483 kts | 62° |
| 2026-04-18 10:24 | 42.01759 | 117.75980 | 36919 ft | 483 kts | 63° |
| 2026-04-18 10:24 | 42.04544 | 117.84186 | 36917 ft | 482 kts | 63° |
| 2026-04-18 10:25 | 42.07301 | 117.92359 | 36911 ft | 482 kts | 63° |
| 2026-04-18 10:25 | 42.10047 | 118.00600 | 36904 ft | 482 kts | 63° |
| 2026-04-18 10:26 | 42.12790 | 118.08856 | 36898 ft | 482 kts | 63° |
| 2026-04-18 10:26 | 42.15534 | 118.17129 | 36891 ft | 483 kts | 63° |
| 2026-04-18 10:27 | 42.17921 | 118.25608 | 36887 ft | 487 kts | 75° |
| 2026-04-18 10:27 | 42.18592 | 118.34665 | 36899 ft | 491 kts | 88° |
| 2026-04-18 10:28 | 42.18614 | 118.43885 | 36881 ft | 492 kts | 89° |
| 2026-04-18 10:28 | 42.18673 | 118.53124 | 36885 ft | 493 kts | 88° |
| 2026-04-18 10:29 | 42.18787 | 118.62371 | 36879 ft | 493 kts | 88° |
| 2026-04-18 10:29 | 42.18900 | 118.71627 | 36879 ft | 493 kts | 88° |
| 2026-04-18 10:30 | 42.18333 | 118.80832 | 36880 ft | 494 kts | 104° |
| 2026-04-18 10:30 | 42.15873 | 118.89449 | 36885 ft | 493 kts | 119° |
| 2026-04-18 10:31 | 42.12573 | 118.97478 | 36888 ft | 493 kts | 120° |
| 2026-04-18 10:31 | 42.09246 | 119.05550 | 36883 ft | 493 kts | 120° |
| 2026-04-18 10:32 | 42.05960 | 119.13670 | 36899 ft | 494 kts | 120° |
| 2026-04-18 10:32 | 42.02696 | 119.21775 | 36896 ft | 492 kts | 120° |
| 2026-04-18 10:33 | 41.99433 | 119.29852 | 36898 ft | 490 kts | 120° |
| 2026-04-18 10:33 | 41.96167 | 119.37905 | 36908 ft | 489 kts | 120° |
| 2026-04-18 10:34 | 41.92916 | 119.45930 | 36917 ft | 489 kts | 120° |
| 2026-04-18 10:34 | 41.89723 | 119.53971 | 36926 ft | 488 kts | 119° |
| 2026-04-18 10:35 | 41.86561 | 119.61952 | 36933 ft | 487 kts | 119° |
| 2026-04-18 10:35 | 41.83368 | 119.69969 | 36937 ft | 486 kts | 120° |
| 2026-04-18 10:36 | 41.80177 | 119.77946 | 36955 ft | 485 kts | 120° |
| 2026-04-18 10:36 | 41.76981 | 119.85910 | 36962 ft | 485 kts | 120° |
| 2026-04-18 10:37 | 41.73781 | 119.93863 | 36965 ft | 484 kts | 120° |
| 2026-04-18 10:37 | 41.70577 | 120.01805 | 36977 ft | 485 kts | 120° |
| 2026-04-18 10:38 | 41.67379 | 120.09710 | 36985 ft | 487 kts | 120° |
| 2026-04-18 10:38 | 41.64133 | 120.17713 | 36992 ft | 489 kts | 120° |
| 2026-04-18 10:39 | 41.60876 | 120.25725 | 36986 ft | 491 kts | 120° |
| 2026-04-18 10:39 | 41.57607 | 120.33745 | 36998 ft | 491 kts | 120° |
| 2026-04-18 10:40 | 41.54792 | 120.42006 | 36996 ft | 493 kts | 105° |
| 2026-04-18 10:40 | 41.53953 | 120.51066 | 36987 ft | 493 kts | 86° |
| 2026-04-18 10:41 | 41.54471 | 120.60165 | 36994 ft | 491 kts | 84° |
| 2026-04-18 10:41 | 41.55040 | 120.69231 | 37002 ft | 489 kts | 84° |
| 2026-04-18 10:42 | 41.55536 | 120.78291 | 37004 ft | 488 kts | 85° |
| 2026-04-18 10:42 | 41.55988 | 120.87281 | 37017 ft | 488 kts | 85° |
| 2026-04-18 10:43 | 41.56434 | 120.96318 | 37007 ft | 487 kts | 85° |
| 2026-04-18 10:43 | 41.56875 | 121.05332 | 37026 ft | 486 kts | 85° |
| 2026-04-18 10:44 | 41.57312 | 121.14352 | 37027 ft | 486 kts | 85° |
| 2026-04-18 10:44 | 41.57807 | 121.23359 | 37033 ft | 485 kts | 83° |
| 2026-04-18 10:45 | 41.58530 | 121.32263 | 37035 ft | 485 kts | 82° |
| 2026-04-18 10:45 | 41.59279 | 121.41226 | 37026 ft | 486 kts | 83° |
| 2026-04-18 10:46 | 41.59987 | 121.50218 | 37042 ft | 486 kts | 83° |
| 2026-04-18 10:46 | 41.60671 | 121.59218 | 37045 ft | 487 kts | 83° |
| 2026-04-18 10:47 | 41.61343 | 121.68190 | 37044 ft | 488 kts | 83° |
| 2026-04-18 10:47 | 41.62019 | 121.77290 | 37042 ft | 489 kts | 83° |
| 2026-04-18 10:48 | 41.62686 | 121.86351 | 37042 ft | 490 kts | 83° |
| 2026-04-18 10:48 | 41.63342 | 121.95352 | 37042 ft | 490 kts | 83° |
| 2026-04-18 10:49 | 41.63996 | 122.04418 | 37042 ft | 490 kts | 83° |
| 2026-04-18 10:49 | 41.64353 | 122.13522 | 37036 ft | 491 kts | 95° |
| 2026-04-18 10:50 | 41.63394 | 122.22568 | 37035 ft | 491 kts | 99° |
| 2026-04-18 10:50 | 41.62275 | 122.31583 | 37041 ft | 491 kts | 99° |
| 2026-04-18 10:51 | 41.61199 | 122.40591 | 37047 ft | 491 kts | 99° |
| 2026-04-18 10:51 | 41.60157 | 122.49613 | 37045 ft | 491 kts | 99° |
| 2026-04-18 10:52 | 41.59118 | 122.58631 | 37044 ft | 491 kts | 99° |
| 2026-04-18 10:52 | 41.58070 | 122.67641 | 37051 ft | 491 kts | 99° |
| 2026-04-18 10:53 | 41.57014 | 122.76647 | 37047 ft | 491 kts | 99° |
| 2026-04-18 10:53 | 41.55956 | 122.85595 | 37050 ft | 491 kts | 99° |
| 2026-04-18 10:54 | 41.54884 | 122.94599 | 37051 ft | 491 kts | 99° |
| 2026-04-18 10:54 | 41.53804 | 123.03618 | 37061 ft | 491 kts | 99° |
| 2026-04-18 10:55 | 41.52717 | 123.12626 | 37059 ft | 492 kts | 100° |
| 2026-04-18 10:55 | 41.51623 | 123.21641 | 37062 ft | 492 kts | 100° |
| 2026-04-18 10:56 | 41.50531 | 123.30598 | 37060 ft | 492 kts | 100° |
| 2026-04-18 10:56 | 41.49507 | 123.39633 | 37068 ft | 492 kts | 99° |
| 2026-04-18 10:57 | 41.48511 | 123.48677 | 37069 ft | 493 kts | 99° |
| 2026-04-18 10:57 | 41.47499 | 123.57721 | 37069 ft | 493 kts | 99° |
| 2026-04-18 10:58 | 41.46470 | 123.66768 | 37064 ft | 494 kts | 99° |
| 2026-04-18 10:58 | 41.45608 | 123.74282 | 37082 ft | 493 kts | 99° |
| 2026-04-18 10:59 | 41.44564 | 123.83330 | 37082 ft | 494 kts | 99° |
| 2026-04-18 10:59 | 41.43514 | 123.92372 | 37090 ft | 494 kts | 99° |
| 2026-04-18 11:00 | 41.42456 | 124.01427 | 37085 ft | 495 kts | 100° |
| 2026-04-18 11:00 | 41.41342 | 124.07292 | 37081 ft | 491 kts | 119° |
| 2026-04-18 11:00 | 41.40183 | 124.09924 | 37121 ft | 485 kts | 130° |
| 2026-04-18 11:00 | 41.37922 | 124.13133 | 37093 ft | 477 kts | 146° |
| 2026-04-18 11:01 | 41.35167 | 124.15487 | 37107 ft | 468 kts | 159° |
| 2026-04-18 11:01 | 41.32147 | 124.16973 | 37091 ft | 459 kts | 173° |
| 2026-04-18 11:01 | 41.29017 | 124.17504 | 37130 ft | 452 kts | 181° |
| 2026-04-18 11:02 | 41.19584 | 124.18105 | 37116 ft | 453 kts | 182° |
| 2026-04-18 11:02 | 41.13278 | 124.18599 | 37113 ft | 454 kts | 181° |
| 2026-04-18 11:03 | 41.06956 | 124.19192 | 37115 ft | 455 kts | 181° |
| 2026-04-18 11:03 | 41.00680 | 124.19831 | 37116 ft | 455 kts | 180° |
| 2026-04-18 11:04 | 40.94375 | 124.20561 | 37120 ft | 455 kts | 180° |
| 2026-04-18 11:04 | 40.88072 | 124.21294 | 37126 ft | 454 kts | 180° |
| 2026-04-18 11:05 | 40.81775 | 124.22012 | 37126 ft | 454 kts | 180° |
| 2026-04-18 11:05 | 40.75485 | 124.22723 | 37131 ft | 454 kts | 180° |
| 2026-04-18 11:06 | 40.69196 | 124.23431 | 37127 ft | 453 kts | 180° |
| 2026-04-18 11:06 | 40.62915 | 124.24138 | 37131 ft | 452 kts | 180° |
| 2026-04-18 11:07 | 40.56644 | 124.24843 | 37132 ft | 452 kts | 180° |
| 2026-04-18 11:07 | 40.53511 | 124.25194 | 37011 ft | 453 kts | 180° |
| 2026-04-18 11:07 | 40.50336 | 124.25547 | 36373 ft | 458 kts | 180° |
| 2026-04-18 11:08 | 40.47215 | 124.25898 | 35755 ft | 455 kts | 179° |
| 2026-04-18 11:08 | 40.44057 | 124.26252 | 34973 ft | 456 kts | 179° |
| 2026-04-18 11:08 | 40.40894 | 124.26606 | 34183 ft | 455 kts | 179° |
| 2026-04-18 11:08 | 40.37753 | 124.26958 | 33231 ft | 451 kts | 179° |
| 2026-04-18 11:09 | 40.34641 | 124.27306 | 32343 ft | 447 kts | 179° |
| 2026-04-18 11:09 | 40.31554 | 124.27721 | 31425 ft | 446 kts | 172° |
| 2026-04-18 11:09 | 40.28633 | 124.29125 | 30536 ft | 452 kts | 152° |
| 2026-04-18 11:09 | 40.26159 | 124.31681 | 29510 ft | 456 kts | 134° |
| 2026-04-18 11:10 | 40.24310 | 124.35033 | 28448 ft | 456 kts | 117° |
| 2026-04-18 11:10 | 40.23232 | 124.38923 | 27396 ft | 454 kts | 105° |
| 2026-04-18 11:10 | 40.22439 | 124.42908 | 26248 ft | 452 kts | 105° |
| 2026-04-18 11:10 | 40.21652 | 124.46820 | 25409 ft | 444 kts | 105° |
| 2026-04-18 11:11 | 40.20692 | 124.50616 | 24626 ft | 434 kts | 115° |
| 2026-04-18 11:11 | 40.19304 | 124.54023 | 24221 ft | 415 kts | 125° |
| 2026-04-18 11:11 | 40.17748 | 124.57115 | 23811 ft | 400 kts | 126° |
| 2026-04-18 11:11 | 40.16225 | 124.60089 | 23389 ft | 388 kts | 126° |
| 2026-04-18 11:12 | 40.14740 | 124.62985 | 22946 ft | 380 kts | 126° |
| 2026-04-18 11:12 | 40.13280 | 124.65843 | 22601 ft | 378 kts | 126° |
| 2026-04-18 11:12 | 40.11809 | 124.68731 | 22208 ft | 385 kts | 126° |
| 2026-04-18 11:12 | 40.10326 | 124.71654 | 21816 ft | 386 kts | 125° |
| 2026-04-18 11:13 | 40.08852 | 124.74568 | 21428 ft | 382 kts | 125° |
| 2026-04-18 11:13 | 40.07398 | 124.77448 | 21026 ft | 379 kts | 125° |
| 2026-04-18 11:13 | 40.05953 | 124.80310 | 20657 ft | 375 kts | 125° |
| 2026-04-18 11:13 | 40.04520 | 124.83146 | 20298 ft | 373 kts | 125° |
| 2026-04-18 11:14 | 40.03098 | 124.85957 | 19907 ft | 368 kts | 125° |
| 2026-04-18 11:14 | 40.01699 | 124.88722 | 19551 ft | 363 kts | 125° |
| 2026-04-18 11:14 | 40.00335 | 124.91415 | 19196 ft | 357 kts | 125° |
| 2026-04-18 11:14 | 39.98973 | 124.94101 | 18843 ft | 352 kts | 125° |
| 2026-04-18 11:15 | 39.97626 | 124.96755 | 18492 ft | 349 kts | 125° |
| 2026-04-18 11:15 | 39.96291 | 124.99382 | 18124 ft | 347 kts | 125° |
| 2026-04-18 11:15 | 39.94961 | 125.01997 | 17749 ft | 344 kts | 125° |
| 2026-04-18 11:15 | 39.93642 | 125.04588 | 17386 ft | 341 kts | 125° |
| 2026-04-18 11:16 | 39.92335 | 125.07156 | 17036 ft | 338 kts | 125° |
| 2026-04-18 11:16 | 39.91040 | 125.09697 | 16682 ft | 336 kts | 125° |
| 2026-04-18 11:16 | 39.89752 | 125.12223 | 16334 ft | 333 kts | 125° |
| 2026-04-18 11:16 | 39.88472 | 125.14727 | 15995 ft | 331 kts | 125° |
| 2026-04-18 11:17 | 39.87198 | 125.17222 | 15651 ft | 329 kts | 125° |
| 2026-04-18 11:17 | 39.85933 | 125.19697 | 15322 ft | 327 kts | 125° |
| 2026-04-18 11:17 | 39.84691 | 125.22124 | 15004 ft | 324 kts | 125° |
| 2026-04-18 11:17 | 39.83443 | 125.24561 | 14675 ft | 322 kts | 125° |
| 2026-04-18 11:18 | 39.82205 | 125.26977 | 14370 ft | 320 kts | 125° |
| 2026-04-18 11:18 | 39.80971 | 125.29383 | 14043 ft | 318 kts | 125° |
| 2026-04-18 11:18 | 39.79744 | 125.31775 | 13716 ft | 317 kts | 125° |
| 2026-04-18 11:18 | 39.78524 | 125.34151 | 13357 ft | 315 kts | 125° |
| 2026-04-18 11:19 | 39.77312 | 125.36515 | 13026 ft | 313 kts | 124° |
| 2026-04-18 11:19 | 39.76104 | 125.38860 | 12704 ft | 311 kts | 124° |
| 2026-04-18 11:19 | 39.74903 | 125.41190 | 12393 ft | 309 kts | 124° |
| 2026-04-18 11:19 | 39.73592 | 125.43382 | 12050 ft | 307 kts | 140° |
| 2026-04-18 11:20 | 39.71787 | 125.44750 | 11806 ft | 297 kts | 164° |
| 2026-04-18 11:20 | 39.69808 | 125.45316 | 11588 ft | 286 kts | 172° |
| 2026-04-18 11:20 | 39.67890 | 125.45716 | 11336 ft | 273 kts | 173° |
| 2026-04-18 11:20 | 39.66044 | 125.46078 | 11118 ft | 265 kts | 173° |
| 2026-04-18 11:21 | 39.64228 | 125.46434 | 10852 ft | 264 kts | 173° |
| 2026-04-18 11:21 | 39.62410 | 125.46795 | 10629 ft | 264 kts | 173° |
| 2026-04-18 11:21 | 39.60591 | 125.47162 | 10400 ft | 264 kts | 173° |
| 2026-04-18 11:21 | 39.58776 | 125.47533 | 10169 ft | 264 kts | 172° |
| 2026-04-18 11:22 | 39.56981 | 125.47902 | 9938 ft | 265 kts | 172° |
| 2026-04-18 11:22 | 39.55165 | 125.48279 | 9688 ft | 265 kts | 172° |
| 2026-04-18 11:22 | 39.53340 | 125.48658 | 9444 ft | 265 kts | 173° |
| 2026-04-18 11:22 | 39.51519 | 125.49035 | 9206 ft | 264 kts | 172° |
| 2026-04-18 11:23 | 39.49703 | 125.49413 | 8971 ft | 263 kts | 172° |
| 2026-04-18 11:23 | 39.47900 | 125.49788 | 8737 ft | 262 kts | 172° |
| 2026-04-18 11:23 | 39.46099 | 125.50164 | 8521 ft | 262 kts | 173° |
| 2026-04-18 11:23 | 39.44294 | 125.50515 | 8277 ft | 261 kts | 173° |
| 2026-04-18 11:24 | 39.42502 | 125.50886 | 8061 ft | 260 kts | 172° |
| 2026-04-18 11:24 | 39.40742 | 125.51268 | 7849 ft | 259 kts | 172° |
| 2026-04-18 11:24 | 39.38961 | 125.51647 | 7603 ft | 259 kts | 173° |
| 2026-04-18 11:24 | 39.37183 | 125.52017 | 7373 ft | 258 kts | 172° |
| 2026-04-18 11:25 | 39.35444 | 125.52538 | 7152 ft | 256 kts | 172° |
| 2026-04-18 11:25 | 39.33679 | 125.52815 | 6914 ft | 256 kts | 175° |
| 2026-04-18 11:25 | 39.31907 | 125.53130 | 6660 ft | 258 kts | 174° |
| 2026-04-18 11:25 | 39.30163 | 125.53477 | 6388 ft | 246 kts | 173° |
| 2026-04-18 11:26 | 39.28528 | 125.53799 | 6138 ft | 230 kts | 179° |
| 2026-04-18 11:26 | 39.26964 | 125.54031 | 5943 ft | 225 kts | 173° |
| 2026-04-18 11:26 | 39.25420 | 125.54399 | 5735 ft | 227 kts | 172° |
| 2026-04-18 11:26 | 39.23858 | 125.54754 | 5514 ft | 228 kts | 173° |
| 2026-04-18 11:27 | 39.22287 | 125.55106 | 5282 ft | 230 kts | 169° |
| 2026-04-18 11:27 | 39.20758 | 125.55742 | 5059 ft | 230 kts | 165° |
| 2026-04-18 11:27 | 39.19230 | 125.56340 | 4833 ft | 228 kts | 167° |
| 2026-04-18 11:27 | 39.17726 | 125.56888 | 4635 ft | 227 kts | 165° |
| 2026-04-18 11:28 | 39.16245 | 125.57537 | 4393 ft | 219 kts | 163° |
| 2026-04-18 11:28 | 39.14825 | 125.58097 | 4191 ft | 208 kts | 165° |
| 2026-04-18 11:28 | 39.13464 | 125.58603 | 3965 ft | 200 kts | 164° |
| 2026-04-18 11:28 | 39.12143 | 125.59125 | 3832 ft | 199 kts | 164° |
| 2026-04-18 11:29 | 39.10820 | 125.59656 | 3622 ft | 199 kts | 164° |
| 2026-04-18 11:29 | 39.09509 | 125.60165 | 3448 ft | 195 kts | 164° |
| 2026-04-18 11:29 | 39.08213 | 125.60682 | 3275 ft | 195 kts | 164° |
| 2026-04-18 11:29 | 39.06985 | 125.61380 | 3058 ft | 195 kts | 139° |
| 2026-04-18 11:30 | 39.06367 | 125.62871 | 2890 ft | 191 kts | 94° |
| 2026-04-18 11:30 | 39.06540 | 125.64550 | 2753 ft | 192 kts | 73° |
| 2026-04-18 11:30 | 39.06931 | 125.66213 | 2566 ft | 195 kts | 72° |
| 2026-04-18 11:30 | 39.07341 | 125.67867 | 2364 ft | 192 kts | 71° |
| 2026-04-18 11:31 | 39.07747 | 125.69491 | 2215 ft | 191 kts | 70° |
| 2026-04-18 11:31 | 39.08466 | 125.70877 | 2110 ft | 188 kts | 30° |
| 2026-04-18 11:31 | 39.09703 | 125.71176 | 2004 ft | 185 kts | 349° |
| 2026-04-18 11:31 | 39.10917 | 125.70809 | 1790 ft | 170 kts | 343° |
| 2026-04-18 11:32 | 39.11961 | 125.70367 | 1550 ft | 150 kts | 340° |
| 2026-04-18 11:32 | 39.12907 | 125.70035 | 1356 ft | 134 kts | 342° |
| 2026-04-18 11:32 | 39.13803 | 125.69696 | 1178 ft | 135 kts | 342° |
| 2026-04-18 11:32 | 39.14688 | 125.69342 | 1029 ft | 134 kts | 342° |
| 2026-04-18 11:33 | 39.15583 | 125.68991 | 833 ft | 135 kts | 342° |
| 2026-04-18 11:33 | 39.16470 | 125.68640 | 663 ft | 133 kts | 342° |
| 2026-04-18 11:33 | 39.17351 | 125.68285 | 480 ft | 133 kts | 341° |
| 2026-04-18 11:33 | 39.18234 | 125.67934 | 312 ft | 132 kts | 342° |
| 2026-04-18 11:34 | 39.19110 | 125.67593 | 142 ft | 132 kts | 343° |
| 2026-04-18 11:34 | 39.19900 | 125.67284 | 103 ft | 100 kts | 343° |
| 2026-04-18 11:34 | 39.20415 | 125.67081 | 106 ft | 49 kts | 343° |
| 2026-04-18 11:34 | 39.20668 | 125.66985 | 104 ft | 22 kts | 349° |
| 2026-04-18 11:35 | 39.20753 | 125.67063 | 105 ft | 14 kts | 73° |
| 2026-04-18 11:35 | 39.20765 | 125.67183 | 105 ft | 14 kts | 119° |
| 2026-04-18 11:35 | 39.20684 | 125.67233 | 105 ft | 13 kts | 163° |
| 2026-04-18 11:35 | 39.20574 | 125.67275 | 104 ft | 23 kts | 163° |
| 2026-04-18 11:36 | 39.20424 | 125.67333 | 104 ft | 22 kts | 163° |
| 2026-04-18 11:36 | 39.20289 | 125.67388 | 103 ft | 18 kts | 164° |
| 2026-04-18 11:36 | 39.20194 | 125.67423 | 103 ft | 13 kts | 164° |
| 2026-04-18 11:36 | 39.20126 | 125.67472 | 103 ft | 10 kts | 86° |
| 2026-04-18 11:37 | 39.20138 | 125.67520 | 103 ft | 0 kts | 73° |